createdAt,value
2019-02-23T00:00:31.268Z,99.99
2019-02-23T00:01:31.249Z,99.99
2019-02-23T00:02:31.177Z,99.99
2019-02-23T00:03:31.170Z,99.99
2019-02-23T00:04:31.097Z,99.99
2019-02-23T00:05:31.052Z,99.99
2019-02-23T00:06:31.023Z,99.99
2019-02-23T00:07:30.950Z,99.99
2019-02-23T00:08:30.920Z,99.99
2019-02-23T00:09:30.869Z,99.99
2019-02-23T00:10:30.827Z,99.99
2019-02-23T00:11:30.782Z,99.99
2019-02-23T00:12:30.757Z,99.99
2019-02-23T00:13:30.698Z,99.99
2019-02-23T00:14:30.641Z,99.99
2019-02-23T00:15:30.622Z,99.99
2019-02-23T00:16:30.559Z,99.99
2019-02-23T00:17:30.553Z,99.99
2019-02-23T00:18:30.489Z,99.99
2019-02-23T00:19:30.428Z,99.99
2019-02-23T00:20:30.377Z,99.99
2019-02-23T00:21:30.339Z,99.99
2019-02-23T00:22:30.322Z,99.99
2019-02-23T00:23:30.290Z,99.99
2019-02-23T00:24:30.210Z,99.99
2019-02-23T00:25:30.157Z,99.99
2019-02-23T00:26:30.110Z,99.99
2019-02-23T00:27:30.067Z,99.99
2019-02-23T00:28:30.059Z,99.99
2019-02-23T00:29:29.985Z,99.99
2019-02-23T00:30:29.946Z,99.99
2019-02-23T00:31:29.900Z,99.99
2019-02-23T00:32:29.845Z,99.99
2019-02-23T00:33:29.826Z,99.99
2019-02-23T00:34:29.789Z,99.99
2019-02-23T00:35:29.717Z,99.99
2019-02-23T00:36:29.676Z,99.99
2019-02-23T00:37:29.632Z,99.99
2019-02-23T00:38:29.580Z,99.99
2019-02-23T00:39:29.531Z,99.99
2019-02-23T00:40:29.523Z,99.99
2019-02-23T00:41:29.452Z,99.99
2019-02-23T00:42:29.406Z,99.99
2019-02-23T00:43:29.359Z,99.99
2019-02-23T00:44:29.348Z,99.99
2019-02-23T00:45:29.268Z,99.99
2019-02-23T00:46:29.221Z,99.99
2019-02-23T00:47:29.176Z,99.99
2019-02-23T00:48:29.142Z,99.99
2019-02-23T00:49:36.435Z,99.99
2019-02-23T00:50:29.052Z,99.99
2019-02-23T00:51:29.008Z,99.99
2019-02-23T00:52:28.959Z,99.99
2019-02-23T00:53:28.914Z,99.99
2019-02-23T00:54:28.901Z,99.99
2019-02-23T00:55:28.853Z,99.99
2019-02-23T00:56:28.778Z,99.99
2019-02-23T00:57:28.735Z,99.99
2019-02-23T00:58:28.689Z,99.99
2019-02-23T00:59:28.648Z,99.99
2019-02-23T01:00:28.632Z,99.99
2019-02-23T01:01:28.590Z,99.99
2019-02-23T01:02:28.524Z,99.99
2019-02-23T01:03:28.483Z,99.99
2019-02-23T01:04:28.435Z,99.99
2019-02-23T01:05:28.383Z,99.99
2019-02-23T01:06:28.361Z,99.99
2019-02-23T01:07:28.315Z,99.99
2019-02-23T01:08:28.258Z,99.99
2019-02-23T01:09:28.215Z,99.99
2019-02-23T01:10:28.190Z,99.99
2019-02-23T01:11:28.118Z,99.99
2019-02-23T01:12:28.081Z,99.99
2019-02-23T01:13:28.037Z,99.99
2019-02-23T01:14:27.990Z,99.99
2019-02-23T01:15:27.951Z,99.99
2019-02-23T01:16:27.921Z,99.99
2019-02-23T01:17:27.852Z,99.99
2019-02-23T01:18:27.807Z,99.99
2019-02-23T01:19:27.765Z,99.99
2019-02-23T01:20:27.727Z,99.99
2019-02-23T01:21:27.702Z,99.99
2019-02-23T01:22:27.634Z,99.99
2019-02-23T01:23:27.598Z,99.99
2019-02-23T01:24:27.538Z,99.99
2019-02-23T01:25:27.497Z,99.99
2019-02-23T01:26:27.481Z,99.99
2019-02-23T01:27:27.412Z,99.99
2019-02-23T01:28:27.365Z,99.99
2019-02-23T01:29:27.318Z,99.99
2019-02-23T01:30:27.277Z,99.99
2019-02-23T01:31:27.264Z,99.99
2019-02-23T01:32:27.191Z,99.99
2019-02-23T01:33:27.160Z,99.99
2019-02-23T01:34:27.100Z,99.99
2019-02-23T01:35:27.063Z,99.99
2019-02-23T01:36:27.008Z,99.99
2019-02-23T01:37:26.985Z,99.99
2019-02-23T01:38:26.912Z,99.99
2019-02-23T01:39:26.875Z,99.99
2019-02-23T01:40:26.837Z,99.99
2019-02-23T01:41:26.803Z,99.99
2019-02-23T01:42:26.761Z,99.99
2019-02-23T01:43:26.713Z,99.99
2019-02-23T01:44:26.725Z,99.99
2019-02-23T01:45:26.611Z,99.99
2019-02-23T01:46:26.564Z,99.99
2019-02-23T01:47:26.540Z,99.99
2019-02-23T01:48:26.467Z,99.99
2019-02-23T01:49:26.444Z,99.99
2019-02-23T01:50:26.374Z,99.99
2019-02-23T01:51:26.331Z,99.99
2019-02-23T01:52:26.296Z,99.99
2019-02-23T01:53:26.248Z,99.99
2019-02-23T01:54:26.232Z,99.99
2019-02-23T01:55:26.157Z,99.99
2019-02-23T01:56:26.107Z,99.99
2019-02-23T01:57:26.062Z,99.99
2019-02-23T01:58:26.024Z,99.99
2019-02-23T01:59:25.977Z,99.99
2019-02-23T02:00:25.955Z,99.99
2019-02-23T02:01:25.883Z,99.99
2019-02-23T02:02:25.838Z,99.99
2019-02-23T02:03:25.822Z,99.99
2019-02-23T02:04:25.756Z,99.99
2019-02-23T02:05:25.737Z,99.99
2019-02-23T02:06:25.670Z,99.99
2019-02-23T02:07:25.621Z,99.99
2019-02-23T02:08:25.573Z,99.99
2019-02-23T02:09:25.523Z,99.99
2019-02-23T02:10:25.481Z,99.99
2019-02-23T02:11:25.467Z,99.99
2019-02-23T02:12:25.397Z,99.99
2019-02-23T02:13:25.353Z,99.99
2019-02-23T02:14:25.321Z,99.99
2019-02-23T02:15:25.257Z,99.99
2019-02-23T02:16:25.216Z,99.99
2019-02-23T02:17:25.174Z,99.99
2019-02-23T02:18:25.127Z,99.99
2019-02-23T02:19:25.104Z,99.99
2019-02-23T02:20:25.027Z,99.99
2019-02-23T02:21:24.980Z,99.99
2019-02-23T02:22:24.937Z,99.99
2019-02-23T02:23:24.917Z,99.99
2019-02-23T02:24:24.855Z,99.99
2019-02-23T02:25:24.811Z,99.99
2019-02-23T02:26:24.762Z,99.99
2019-02-23T02:27:24.718Z,99.99
2019-02-23T02:28:24.667Z,99.99
2019-02-23T02:29:24.641Z,99.99
2019-02-23T02:30:24.606Z,99.99
2019-02-23T02:31:24.537Z,99.99
2019-02-23T02:32:24.489Z,99.99
2019-02-23T02:33:24.444Z,99.99
2019-02-23T02:34:24.394Z,99.99
2019-02-23T02:35:24.373Z,99.99
2019-02-23T02:36:24.314Z,99.99
2019-02-23T02:37:24.268Z,99.99
2019-02-23T02:38:24.218Z,99.99
2019-02-23T02:39:24.176Z,99.99
2019-02-23T02:40:24.150Z,99.99
2019-02-23T02:41:24.081Z,99.99
2019-02-23T02:42:24.033Z,99.99
2019-02-23T02:43:23.990Z,99.99
2019-02-23T02:44:23.953Z,99.99
2019-02-23T02:45:23.907Z,99.99
2019-02-23T02:46:23.881Z,99.99
2019-02-23T02:47:23.805Z,99.99
2019-02-23T02:48:23.775Z,99.99
2019-02-23T02:49:23.723Z,99.99
2019-02-23T02:50:24.910Z,99.99
2019-02-23T02:51:23.640Z,99.99
2019-02-23T02:52:23.604Z,99.99
2019-02-23T02:53:23.534Z,99.99
2019-02-23T02:54:23.487Z,99.99
2019-02-23T02:55:23.447Z,99.99
2019-02-23T02:56:23.406Z,99.99
2019-02-23T02:57:23.383Z,99.99
2019-02-23T02:58:23.316Z,99.99
2019-02-23T02:59:23.273Z,99.99
2019-02-23T03:00:23.218Z,99.99
2019-02-23T03:01:23.169Z,99.99
2019-02-23T03:02:23.160Z,99.99
2019-02-23T03:03:23.086Z,99.99
2019-02-23T03:04:23.049Z,99.99
2019-02-23T03:05:22.988Z,99.99
2019-02-23T03:06:22.943Z,99.99
2019-02-23T03:07:22.898Z,99.99
2019-02-23T03:08:22.882Z,99.99
2019-02-23T03:09:22.813Z,99.99
2019-02-23T03:10:22.769Z,99.99
2019-02-23T03:11:22.723Z,99.99
2019-02-23T03:12:22.695Z,99.99
2019-02-23T03:13:22.623Z,99.99
2019-02-23T03:14:22.579Z,99.99
2019-02-23T03:15:22.538Z,99.99
2019-02-23T03:16:22.499Z,99.99
2019-02-23T03:17:22.481Z,99.99
2019-02-23T03:18:22.396Z,99.99
2019-02-23T03:19:22.355Z,99.99
2019-02-23T03:20:22.311Z,99.99
2019-02-23T03:21:22.267Z,99.99
2019-02-23T03:22:22.231Z,99.99
2019-02-23T03:23:22.203Z,99.99
2019-02-23T03:24:22.129Z,99.99
2019-02-23T03:25:22.078Z,99.99
2019-02-23T03:26:22.035Z,99.99
2019-02-23T03:27:21.989Z,99.99
2019-02-23T03:28:21.952Z,99.99
2019-02-23T03:29:21.930Z,99.99
2019-02-23T03:30:21.860Z,99.99
2019-02-23T03:31:21.817Z,99.99
2019-02-23T03:32:21.766Z,99.99
2019-02-23T03:33:21.745Z,99.99
2019-02-23T03:34:21.701Z,99.99
2019-02-23T03:35:21.634Z,99.99
2019-02-23T03:36:21.583Z,99.99
2019-02-23T03:37:21.565Z,99.99
2019-02-23T03:38:21.494Z,99.99
2019-02-23T03:39:21.474Z,99.99
2019-02-23T03:40:21.410Z,99.99
2019-02-23T03:41:21.367Z,99.99
2019-02-23T03:42:21.319Z,99.99
2019-02-23T03:43:21.280Z,99.99
2019-02-23T03:44:21.221Z,99.99
2019-02-23T03:45:21.201Z,99.99
2019-02-23T03:46:21.131Z,99.99
2019-02-23T03:47:21.090Z,99.99
2019-02-23T03:48:21.046Z,99.99
2019-02-23T03:49:21.023Z,99.99
2019-02-23T03:50:20.949Z,99.99
2019-02-23T03:51:20.927Z,99.99
2019-02-23T03:52:20.880Z,99.99
2019-02-23T03:53:20.826Z,99.99
2019-02-23T03:54:20.774Z,99.99
2019-02-23T03:55:20.757Z,99.99
2019-02-23T03:56:20.682Z,99.99
2019-02-23T03:57:20.663Z,99.99
2019-02-23T03:58:20.680Z,99.99
2019-02-23T03:59:20.550Z,99.99
2019-02-23T04:00:20.508Z,99.99
2019-02-23T04:01:20.466Z,99.99
2019-02-23T04:02:20.418Z,99.99
2019-02-23T04:03:20.402Z,99.99
2019-02-23T04:04:20.322Z,99.99
2019-02-23T04:05:20.272Z,99.99
2019-02-23T04:06:20.239Z,99.99
2019-02-23T04:07:20.197Z,99.99
2019-02-23T04:08:20.144Z,99.99
2019-02-23T04:09:20.119Z,99.99
2019-02-23T04:10:20.085Z,99.99
2019-02-23T04:11:20.029Z,99.99
2019-02-23T04:12:19.970Z,99.99
2019-02-23T04:13:19.925Z,99.99
2019-02-23T04:14:19.878Z,99.99
2019-02-23T04:15:19.835Z,99.99
2019-02-23T04:16:19.807Z,99.99
2019-02-23T04:17:19.737Z,99.99
2019-02-23T04:18:19.692Z,99.99
2019-02-23T04:19:19.645Z,99.99
2019-02-23T04:20:19.608Z,99.99
2019-02-23T04:21:19.570Z,99.99
2019-02-23T04:22:19.530Z,99.99
2019-02-23T04:23:19.467Z,99.99
2019-02-23T04:24:19.430Z,99.99
2019-02-23T04:25:19.381Z,99.99
2019-02-23T04:26:19.335Z,99.99
2019-02-23T04:27:19.316Z,99.99
2019-02-23T04:28:19.243Z,99.99
2019-02-23T04:29:19.197Z,99.99
2019-02-23T04:30:19.150Z,99.99
2019-02-23T04:31:19.106Z,99.99
2019-02-23T04:32:19.094Z,99.99
2019-02-23T04:33:19.020Z,99.99
2019-02-23T04:34:18.979Z,99.99
2019-02-23T04:35:18.933Z,99.99
2019-02-23T04:36:18.881Z,99.99
2019-02-23T04:37:18.859Z,99.99
2019-02-23T04:38:18.796Z,99.99
2019-02-23T04:39:18.751Z,99.99
2019-02-23T04:40:18.698Z,99.99
2019-02-23T04:41:18.657Z,99.99
2019-02-23T04:42:18.634Z,99.99
2019-02-23T04:43:18.563Z,99.99
2019-02-23T04:44:18.534Z,99.99
2019-02-23T04:45:18.479Z,99.99
2019-02-23T04:46:18.434Z,99.99
2019-02-23T04:47:18.399Z,99.99
2019-02-23T04:48:18.379Z,99.99
2019-02-23T04:49:18.294Z,99.99
2019-02-23T04:50:18.251Z,99.99
2019-02-23T04:51:18.211Z,99.99
2019-02-23T04:52:18.162Z,99.99
2019-02-23T04:53:18.139Z,99.99
2019-02-23T04:54:18.067Z,99.99
2019-02-23T04:55:18.029Z,99.99
2019-02-23T04:56:17.990Z,99.99
2019-02-23T04:57:17.942Z,99.99
2019-02-23T04:58:17.923Z,99.99
2019-02-23T04:59:17.851Z,99.99
2019-02-23T05:00:17.797Z,99.99
2019-02-23T05:01:17.750Z,99.99
2019-02-23T05:02:17.706Z,99.99
2019-02-23T05:03:17.659Z,99.99
2019-02-23T05:04:17.643Z,99.99
2019-02-23T05:05:17.604Z,99.99
2019-02-23T05:06:17.534Z,99.99
2019-02-23T05:07:17.489Z,99.99
2019-02-23T05:08:17.440Z,99.99
2019-02-23T05:09:17.391Z,99.99
2019-02-23T05:10:17.354Z,99.99
2019-02-23T05:11:17.329Z,99.99
2019-02-23T05:12:17.253Z,99.99
2019-02-23T05:13:17.218Z,99.99
2019-02-23T05:14:17.189Z,99.99
2019-02-23T05:15:17.117Z,99.99
2019-02-23T05:16:17.079Z,99.99
2019-02-23T05:17:17.034Z,99.99
2019-02-23T05:18:16.985Z,99.99
2019-02-23T05:19:16.965Z,99.99
2019-02-23T05:20:16.893Z,99.99
2019-02-23T05:21:25.944Z,99.99
2019-02-23T05:22:16.803Z,99.99
2019-02-23T05:23:16.757Z,99.99
2019-02-23T05:24:16.741Z,99.99
2019-02-23T05:25:16.670Z,99.99
2019-02-23T05:26:16.622Z,99.99
2019-02-23T05:27:16.577Z,99.99
2019-02-23T05:28:16.534Z,99.99
2019-02-23T05:29:16.512Z,99.99
2019-02-23T05:30:16.445Z,99.99
2019-02-23T05:31:16.397Z,99.99
2019-02-23T05:32:16.348Z,99.99
2019-02-23T05:33:16.303Z,99.99
2019-02-23T05:34:16.278Z,99.99
2019-02-23T05:35:16.222Z,99.99
2019-02-23T05:36:16.172Z,99.99
2019-02-23T05:37:16.130Z,99.99
2019-02-23T05:38:16.085Z,99.99
2019-02-23T05:39:17.854Z,99.99
2019-02-23T05:40:15.992Z,99.99
2019-02-23T05:41:15.941Z,99.99
2019-02-23T05:42:15.903Z,99.99
2019-02-23T05:43:15.862Z,99.99
2019-02-23T05:44:15.830Z,99.99
2019-02-23T05:45:15.758Z,99.99
2019-02-23T05:46:15.716Z,99.99
2019-02-23T05:47:15.667Z,99.99
2019-02-23T05:48:15.667Z,99.99
2019-02-23T05:49:15.583Z,99.99
2019-02-23T05:50:15.536Z,99.99
2019-02-23T05:51:15.494Z,99.99
2019-02-23T05:52:15.444Z,99.99
2019-02-23T05:53:15.397Z,99.99
2019-02-23T05:54:15.373Z,99.99
2019-02-23T05:55:15.304Z,99.99
2019-02-23T05:56:16.323Z,99.99
2019-02-23T05:57:15.229Z,99.99
2019-02-23T05:58:15.166Z,99.99
2019-02-23T05:59:15.146Z,99.99
2019-02-23T06:00:15.083Z,99.99
2019-02-23T06:01:15.041Z,99.99
2019-02-23T06:02:15.013Z,99.99
2019-02-23T06:03:14.969Z,99.99
2019-02-23T06:04:14.899Z,99.99
2019-02-23T06:05:14.862Z,99.99
2019-02-23T06:06:14.805Z,99.99
2019-02-23T06:07:14.789Z,99.99
2019-02-23T06:08:14.721Z,99.99
2019-02-23T06:09:14.677Z,99.99
2019-02-23T06:10:14.633Z,99.99
2019-02-23T06:11:14.584Z,99.99
2019-02-23T06:12:14.533Z,99.99
2019-02-23T06:13:14.507Z,99.99
2019-02-23T06:14:14.448Z,99.99
2019-02-23T06:15:14.404Z,99.99
2019-02-23T06:16:14.351Z,99.99
2019-02-23T06:17:14.312Z,99.99
2019-02-23T06:18:14.287Z,99.99
2019-02-23T06:19:14.216Z,99.99
2019-02-23T06:20:14.178Z,99.99
2019-02-23T06:21:14.131Z,99.99
2019-02-23T06:22:14.085Z,99.99
2019-02-23T06:23:14.042Z,99.99
2019-02-23T06:24:14.008Z,99.99
2019-02-23T06:25:13.942Z,99.99
2019-02-23T06:26:13.897Z,99.99
2019-02-23T06:27:13.851Z,99.99
2019-02-23T06:28:13.834Z,99.99
2019-02-23T06:29:13.767Z,99.99
2019-02-23T06:30:13.738Z,99.99
2019-02-23T06:31:13.678Z,99.99
2019-02-23T06:32:13.638Z,99.99
2019-02-23T06:33:13.580Z,99.99
2019-02-23T06:34:16.532Z,99.99
2019-02-23T06:35:13.492Z,99.99
2019-02-23T06:36:13.441Z,99.99
2019-02-23T06:37:13.392Z,99.99
2019-02-23T06:38:13.347Z,99.99
2019-02-23T06:39:13.329Z,99.99
2019-02-23T06:40:13.264Z,99.99
2019-02-23T06:41:13.219Z,99.99
2019-02-23T06:42:13.173Z,99.99
2019-02-23T06:43:13.133Z,99.99
2019-02-23T06:44:13.106Z,99.99
2019-02-23T06:45:13.035Z,99.99
2019-02-23T06:46:12.991Z,99.99
2019-02-23T06:47:12.945Z,99.99
2019-02-23T06:48:12.894Z,99.99
2019-02-23T06:49:12.849Z,99.99
2019-02-23T06:50:12.827Z,99.99
2019-02-23T06:51:12.763Z,99.99
2019-02-23T06:52:12.748Z,99.99
2019-02-23T06:53:12.671Z,99.99
2019-02-23T06:54:12.692Z,99.99
2019-02-23T06:55:12.581Z,99.99
2019-02-23T06:56:12.528Z,99.99
2019-02-23T06:57:12.482Z,99.99
2019-02-23T06:58:12.460Z,99.99
2019-02-23T06:59:12.393Z,99.99
2019-02-23T07:00:12.381Z,99.99
2019-02-23T07:01:12.308Z,99.99
2019-02-23T07:02:12.252Z,99.99
2019-02-23T07:03:12.212Z,99.99
2019-02-23T07:04:12.211Z,99.99
2019-02-23T07:05:12.139Z,99.99
2019-02-23T07:06:12.118Z,99.99
2019-02-23T07:07:12.036Z,99.99
2019-02-23T07:08:11.986Z,99.99
2019-02-23T07:09:11.939Z,99.99
2019-02-23T07:10:11.933Z,99.99
2019-02-23T07:11:11.869Z,99.99
2019-02-23T07:12:11.830Z,99.99
2019-02-23T07:13:11.788Z,99.99
2019-02-23T07:14:11.718Z,99.99
2019-02-23T07:15:11.685Z,99.99
2019-02-23T07:16:11.657Z,99.99
2019-02-23T07:17:11.575Z,99.99
2019-02-23T07:18:11.538Z,99.99
2019-02-23T07:19:11.493Z,99.99
2019-02-23T07:20:11.446Z,99.99
2019-02-23T07:21:11.398Z,99.99
2019-02-23T07:22:15.593Z,99.99
2019-02-23T07:23:11.314Z,99.99
2019-02-23T07:24:11.299Z,99.99
2019-02-23T07:25:11.227Z,99.99
2019-02-23T07:26:11.180Z,99.99
2019-02-23T07:27:11.160Z,99.99
2019-02-23T07:28:11.086Z,99.99
2019-02-23T07:29:11.044Z,99.99
2019-02-23T07:30:11.006Z,99.99
2019-02-23T07:31:10.958Z,99.99
2019-02-23T07:32:10.947Z,99.99
2019-02-23T07:33:10.877Z,99.99
2019-02-23T07:34:10.913Z,99.99
2019-02-23T07:35:10.894Z,99.99
2019-02-23T07:36:10.746Z,99.99
2019-02-23T07:37:10.706Z,99.99
2019-02-23T07:38:10.681Z,99.99
2019-02-23T07:39:10.612Z,99.99
2019-02-23T07:40:10.564Z,99.99
2019-02-23T07:41:10.521Z,99.99
2019-02-23T07:42:10.478Z,99.99
2019-02-23T07:43:10.458Z,99.99
2019-02-23T07:44:10.397Z,99.99
2019-02-23T07:45:10.354Z,99.74
2019-02-23T07:46:10.317Z,99.99
2019-02-23T07:47:10.273Z,99.99
2019-02-23T07:48:10.249Z,99.55
2019-02-23T07:49:10.176Z,99.36
2019-02-23T07:50:10.143Z,98.93
2019-02-23T07:51:10.329Z,97.79
2019-02-23T07:52:10.048Z,96.98
2019-02-23T07:53:10.006Z,97.64
2019-02-23T07:54:09.961Z,98.60
2019-02-23T07:55:09.922Z,98.79
2019-02-23T07:56:09.912Z,98.31
2019-02-23T07:57:09.841Z,98.79
2019-02-23T07:58:09.799Z,98.74
2019-02-23T07:59:09.779Z,99.11
2019-02-23T08:00:09.732Z,99.99
2019-02-23T08:01:09.662Z,99.99
2019-02-23T08:02:09.621Z,99.99
2019-02-23T08:03:09.584Z,99.99
2019-02-23T08:04:09.544Z,99.26
2019-02-23T08:05:09.503Z,98.27
2019-02-23T08:06:09.473Z,96.60
2019-02-23T08:07:09.408Z,97.13
2019-02-23T08:08:09.373Z,96.55
2019-02-23T08:09:09.332Z,96.12
2019-02-23T08:10:09.311Z,96.55
2019-02-23T08:11:09.248Z,99.11
2019-02-23T08:12:09.196Z,99.69
2019-02-23T08:13:09.158Z,98.97
2019-02-23T08:14:09.115Z,98.12
2019-02-23T08:15:09.094Z,96.89
2019-02-23T08:16:09.035Z,96.89
2019-02-23T08:17:08.990Z,96.22
2019-02-23T08:18:08.953Z,95.17
2019-02-23T08:19:08.908Z,95.56
2019-02-23T08:20:08.882Z,95.94
2019-02-23T08:21:08.820Z,95.84
2019-02-23T08:22:08.808Z,94.60
2019-02-23T08:23:08.744Z,95.22
2019-02-23T08:24:08.688Z,94.27
2019-02-23T08:25:08.655Z,93.60
2019-02-23T08:26:08.607Z,92.22
2019-02-23T08:27:08.566Z,91.37
2019-02-23T08:28:08.555Z,91.80
2019-02-23T08:29:08.486Z,93.13
2019-02-23T08:30:08.437Z,93.04
2019-02-23T08:31:08.498Z,93.04
2019-02-23T08:32:08.366Z,92.99
2019-02-23T08:33:08.323Z,91.08
2019-02-23T08:34:08.328Z,91.37
2019-02-23T08:35:08.238Z,91.42
2019-02-23T08:36:08.215Z,91.08
2019-02-23T08:37:08.154Z,89.80
2019-02-23T08:38:08.112Z,91.22
2019-02-23T08:39:08.078Z,91.17
2019-02-23T08:40:08.030Z,90.08
2019-02-23T08:41:08.011Z,88.98
2019-02-23T08:42:08.020Z,87.07
2019-02-23T08:43:07.902Z,85.27
2019-02-23T08:44:07.871Z,84.88
2019-02-23T08:45:08.148Z,85.64
2019-02-23T08:46:07.788Z,84.88
2019-02-23T08:47:07.805Z,84.55
2019-02-23T08:48:07.698Z,83.84
2019-02-23T08:49:07.668Z,84.79
2019-02-23T08:50:07.619Z,85.13
2019-02-23T08:51:07.575Z,87.18
2019-02-23T08:52:07.567Z,87.32
2019-02-23T08:53:07.501Z,87.51
2019-02-23T08:54:07.456Z,87.32
2019-02-23T08:55:07.413Z,86.32
2019-02-23T08:56:07.378Z,84.36
2019-02-23T08:57:07.360Z,82.17
2019-02-23T08:58:07.305Z,82.11
2019-02-23T08:59:07.260Z,81.21
2019-02-23T09:00:07.301Z,80.88
2019-02-23T09:01:07.171Z,82.41
2019-02-23T09:02:07.140Z,83.98
2019-02-23T09:03:07.095Z,84.98
2019-02-23T09:04:07.084Z,84.65
2019-02-23T09:05:07.022Z,84.41
2019-02-23T09:06:06.980Z,82.45
2019-02-23T09:07:06.942Z,81.25
2019-02-23T09:08:06.896Z,79.44
2019-02-23T09:09:08.170Z,79.00
2019-02-23T09:10:06.824Z,78.58
2019-02-23T09:11:06.782Z,80.35
2019-02-23T09:12:06.741Z,81.84
2019-02-23T09:13:06.698Z,81.51
2019-02-23T09:14:06.660Z,82.41
2019-02-23T09:15:06.645Z,83.89
2019-02-23T09:16:06.591Z,84.17
2019-02-23T09:17:06.655Z,84.36
2019-02-23T09:18:06.512Z,83.70
2019-02-23T09:19:06.496Z,83.93
2019-02-23T09:20:06.437Z,82.45
2019-02-23T09:21:06.390Z,81.78
2019-02-23T09:22:06.348Z,80.77
2019-02-23T09:23:06.316Z,79.19
2019-02-23T09:24:06.302Z,77.34
2019-02-23T09:25:06.241Z,76.57
2019-02-23T09:26:06.194Z,78.10
2019-02-23T09:27:06.159Z,78.54
2019-02-23T09:28:06.126Z,80.69
2019-02-23T09:29:06.111Z,80.07
2019-02-23T09:30:06.051Z,79.25
2019-02-23T09:31:06.013Z,78.58
2019-02-23T09:32:05.966Z,77.82
2019-02-23T09:33:05.935Z,77.95
2019-02-23T09:34:05.916Z,76.33
2019-02-23T09:35:05.849Z,75.05
2019-02-23T09:36:05.818Z,76.96
2019-02-23T09:37:05.782Z,77.00
2019-02-23T09:38:05.767Z,75.79
2019-02-23T09:39:05.723Z,74.84
2019-02-23T09:40:05.681Z,73.92
2019-02-23T09:41:05.625Z,73.12
2019-02-23T09:42:07.714Z,73.32
2019-02-23T09:43:05.578Z,73.50
2019-02-23T09:44:05.511Z,75.30
2019-02-23T09:45:05.469Z,78.03
2019-02-23T09:46:05.434Z,79.60
2019-02-23T09:47:05.404Z,80.50
2019-02-23T09:48:05.384Z,80.98
2019-02-23T09:49:05.326Z,81.17
2019-02-23T09:50:05.286Z,80.88
2019-02-23T09:51:05.274Z,81.23
2019-02-23T09:52:05.221Z,81.74
2019-02-23T09:53:11.129Z,79.30
2019-02-23T09:54:05.129Z,77.69
2019-02-23T09:55:05.094Z,77.17
2019-02-23T09:56:05.097Z,78.69
2019-02-23T09:57:05.052Z,79.40
2019-02-23T09:58:05.040Z,78.73
2019-02-23T09:59:04.942Z,77.72
2019-02-23T10:00:04.915Z,75.95
2019-02-23T10:01:04.876Z,74.37
2019-02-23T10:02:04.836Z,72.68
2019-02-23T10:03:04.797Z,72.20
2019-02-23T10:04:04.783Z,71.12
2019-02-23T10:05:04.716Z,72.17
2019-02-23T10:06:04.675Z,72.23
2019-02-23T10:07:04.665Z,73.03
2019-02-23T10:08:04.612Z,72.17
2019-02-23T10:09:04.593Z,72.83
2019-02-23T10:10:04.535Z,73.60
2019-02-23T10:11:04.500Z,73.79
2019-02-23T10:12:04.481Z,73.28
2019-02-23T10:13:04.418Z,74.67
2019-02-23T10:14:04.417Z,75.85
2019-02-23T10:15:04.361Z,73.79
2019-02-23T10:16:04.308Z,72.51
2019-02-23T10:17:04.271Z,72.61
2019-02-23T10:18:04.233Z,73.28
2019-02-23T10:19:04.198Z,72.64
2019-02-23T10:20:04.192Z,72.45
2019-02-23T10:21:04.129Z,71.31
2019-02-23T10:22:04.123Z,71.78
2019-02-23T10:23:04.056Z,71.41
2019-02-23T10:24:04.012Z,71.15
2019-02-23T10:25:04.004Z,70.20
2019-02-23T10:26:03.939Z,69.82
2019-02-23T10:27:03.900Z,69.82
2019-02-23T10:28:03.873Z,70.33
2019-02-23T10:29:03.841Z,70.14
2019-02-23T10:30:03.791Z,69.15
2019-02-23T10:31:03.851Z,70.29
2019-02-23T10:32:03.727Z,71.76
2019-02-23T10:33:03.716Z,69.66
2019-02-23T10:34:03.652Z,68.76
2019-02-23T10:35:03.615Z,69.90
2019-02-23T10:36:03.573Z,72.03
2019-02-23T10:37:03.557Z,73.05
2019-02-23T10:38:03.497Z,73.14
2019-02-23T10:39:03.462Z,72.82
2019-02-23T10:40:03.447Z,74.57
2019-02-23T10:41:03.425Z,74.52
2019-02-23T10:42:03.367Z,73.88
2019-02-23T10:43:03.325Z,71.82
2019-02-23T10:44:03.301Z,70.83
2019-02-23T10:45:03.243Z,71.50
2019-02-23T10:46:03.212Z,71.69
2019-02-23T10:47:03.201Z,70.96
2019-02-23T10:48:03.161Z,69.85
2019-02-23T10:49:03.097Z,69.05
2019-02-23T10:50:03.060Z,70.83
2019-02-23T10:51:03.026Z,71.25
2019-02-23T10:52:02.994Z,69.05
2019-02-23T10:53:02.964Z,69.34
2019-02-23T10:54:02.945Z,69.24
2019-02-23T10:55:02.888Z,68.96
2019-02-23T10:56:02.841Z,68.76
2019-02-23T10:57:02.809Z,69.34
2019-02-23T10:58:02.772Z,69.15
2019-02-23T10:59:02.762Z,69.91
2019-02-23T11:00:02.705Z,68.96
2019-02-23T11:01:02.664Z,67.94
2019-02-23T11:02:02.620Z,68.13
2019-02-23T11:03:02.585Z,68.99
2019-02-23T11:04:02.558Z,68.23
2019-02-23T11:05:02.539Z,67.62
2019-02-23T11:06:02.485Z,68.29
2019-02-23T11:07:02.448Z,68.92
2019-02-23T11:08:02.406Z,69.40
2019-02-23T11:09:02.363Z,70.07
2019-02-23T11:10:02.363Z,70.36
2019-02-23T11:11:02.318Z,71.02
2019-02-23T11:12:02.263Z,71.62
2019-02-23T11:13:02.224Z,72.32
2019-02-23T11:14:02.196Z,71.88
2019-02-23T11:15:02.158Z,71.59
2019-02-23T11:16:02.104Z,70.67
2019-02-23T11:17:02.105Z,68.82
2019-02-23T11:18:02.962Z,70.10
2019-02-23T11:19:02.004Z,70.01
2019-02-23T11:20:01.960Z,70.29
2019-02-23T11:21:01.954Z,69.15
2019-02-23T11:22:01.911Z,69.37
2019-02-23T11:23:01.849Z,71.37
2019-02-23T11:24:01.820Z,71.75
2019-02-23T11:25:01.792Z,71.41
2019-02-23T11:26:01.765Z,71.21
2019-02-23T11:27:01.709Z,69.78
2019-02-23T11:28:01.665Z,70.01
2019-02-23T11:29:01.628Z,69.24
2019-02-23T11:30:01.594Z,68.13
2019-02-23T11:31:01.586Z,67.46
2019-02-23T11:32:01.525Z,67.24
2019-02-23T11:33:01.489Z,68.10
2019-02-23T11:34:01.451Z,68.10
2019-02-23T11:35:01.406Z,67.36
2019-02-23T11:36:01.376Z,67.27
2019-02-23T11:37:01.366Z,66.50
2019-02-23T11:38:01.303Z,66.50
2019-02-23T11:39:01.270Z,66.13
2019-02-23T11:40:01.245Z,65.74
2019-02-23T11:41:01.185Z,66.50
2019-02-23T11:42:01.174Z,67.11
2019-02-23T11:43:01.118Z,65.64
2019-02-23T11:44:01.084Z,66.60
2019-02-23T11:45:01.079Z,66.47
2019-02-23T11:46:01.022Z,66.60
2019-02-23T11:47:00.973Z,66.54
2019-02-23T11:48:00.955Z,65.20
2019-02-23T11:49:00.897Z,64.53
2019-02-23T11:50:00.865Z,64.62
2019-02-23T11:51:00.831Z,63.83
2019-02-23T11:52:00.785Z,63.60
2019-02-23T11:53:00.775Z,64.22
2019-02-23T11:54:00.715Z,64.31
2019-02-23T11:55:00.702Z,62.97
2019-02-23T11:56:00.649Z,62.49
2019-02-23T11:57:00.619Z,61.92
2019-02-23T11:58:00.579Z,61.35
2019-02-23T11:59:00.544Z,61.72
2019-02-23T12:00:00.627Z,61.92
2019-02-23T12:01:00.460Z,62.27
2019-02-23T12:02:00.424Z,61.89
2019-02-23T12:03:00.419Z,61.72
2019-02-23T12:04:00.362Z,61.13
2019-02-23T12:05:00.365Z,61.72
2019-02-23T12:06:00.288Z,61.98
2019-02-23T12:07:00.245Z,62.91
2019-02-23T12:08:00.218Z,62.91
2019-02-23T12:09:00.182Z,62.84
2019-02-23T12:10:00.334Z,63.29
2019-02-23T12:11:00.110Z,62.71
2019-02-23T12:12:00.069Z,61.47
2019-02-23T12:13:00.050Z,61.57
2019-02-23T12:13:59.990Z,61.57
2019-02-23T12:15:00.715Z,61.38
2019-02-23T12:15:59.923Z,61.13
2019-02-23T12:16:59.889Z,60.52
2019-02-23T12:17:59.857Z,60.71
2019-02-23T12:18:59.843Z,60.93
2019-02-23T12:19:59.796Z,60.04
2019-02-23T12:20:59.736Z,60.27
2019-02-23T12:21:59.707Z,60.93
2019-02-23T12:22:59.670Z,61.22
2019-02-23T12:24:06.010Z,61.03
2019-02-23T12:24:59.587Z,60.36
2019-02-23T12:25:59.554Z,60.46
2019-02-23T12:26:59.514Z,60.84
2019-02-23T12:27:59.484Z,60.24
2019-02-23T12:28:59.447Z,59.66
2019-02-23T12:29:59.433Z,60.04
2019-02-23T12:30:59.375Z,59.66
2019-02-23T12:31:59.338Z,59.47
2019-02-23T12:32:59.294Z,60.33
2019-02-23T12:33:59.254Z,59.66
2019-02-23T12:34:59.246Z,59.28
2019-02-23T12:35:59.190Z,58.14
2019-02-23T12:36:59.159Z,58.61
2019-02-23T12:37:59.107Z,57.56
2019-02-23T12:38:59.098Z,57.65
2019-02-23T12:39:59.041Z,57.28
2019-02-23T12:40:59.028Z,57.65
2019-02-23T12:41:58.967Z,57.46
2019-02-23T12:42:58.932Z,58.33
2019-02-23T12:43:58.907Z,56.89
2019-02-23T12:44:58.845Z,57.46
2019-02-23T12:45:58.815Z,56.48
2019-02-23T12:46:58.770Z,56.32
2019-02-23T12:47:58.739Z,56.51
2019-02-23T12:48:58.728Z,56.32
2019-02-23T12:49:58.668Z,55.75
2019-02-23T12:50:58.647Z,56.04
2019-02-23T12:51:58.595Z,55.75